Castlederg, United Kingdom
Current Conditions -  °F | °C
As of 9:20 PM on Sunday 21 Dec 2014 (Local Time) from EGAE Reporting Station
Light Rain Light Rain  
Wind Chill: 12°   Ceiling: 1500
Heat Index: 12°   Visibility: 6mi
Dew Point: 11°   Wind: 24mph
Humidity: 94%   Direction: 240°WSW
Pressure: 29.71"   Gusts: NA
Location:  54.7°N, 7.6°W
Report Text: EGAE 212120Z 24021KT 9000 -RA SCT009 OVC015 12/11 Q1006
Loading
Personal Weather Stations






























Interactive Weather Map New forecast layout! Learn more

10-Day Weather Forecast

Advertisements
Track Severe Weather on mobile